createdAt,value
2018-08-30T00:00:28.436Z,5.43
2018-08-30T00:02:57.686Z,8.50
2018-08-30T00:05:26.951Z,6.23
2018-08-30T00:07:56.146Z,6.37
2018-08-30T00:10:25.400Z,4.73
2018-08-30T00:12:54.608Z,3.30
2018-08-30T00:15:23.856Z,6.87
2018-08-30T00:17:53.080Z,7.97
2018-08-30T00:20:22.357Z,5.77
2018-08-30T00:22:51.562Z,4.20
2018-08-30T00:25:20.792Z,6.10
2018-08-30T00:27:50.067Z,4.37
2018-08-30T00:30:19.407Z,6.50
2018-08-30T00:32:48.647Z,4.40
2018-08-30T00:35:17.863Z,8.20
2018-08-30T00:37:47.091Z,5.97
2018-08-30T00:40:16.290Z,3.90
2018-08-30T00:42:45.587Z,4.50
2018-08-30T00:45:14.796Z,5.93
2018-08-30T00:47:48.537Z,5.93
2018-08-30T00:50:18.223Z,4.90
2018-08-30T00:52:47.524Z,3.77
2018-08-30T00:55:16.769Z,4.10
2018-08-30T00:57:45.968Z,4.70
2018-08-30T01:00:15.230Z,4.57
2018-08-30T01:02:44.424Z,8.87
2018-08-30T01:05:13.685Z,5.70
2018-08-30T01:07:42.863Z,4.27
2018-08-30T01:10:12.127Z,5.80
2018-08-30T01:12:46.967Z,6.37
2018-08-30T01:15:16.195Z,4.30
2018-08-30T01:17:45.435Z,4.40
2018-08-30T01:20:14.628Z,4.57
2018-08-30T01:22:43.978Z,10.00
2018-08-30T01:25:13.200Z,4.13
2018-08-30T01:27:42.472Z,4.63
2018-08-30T01:30:11.734Z,4.20
2018-08-30T01:32:40.994Z,5.73
2018-08-30T01:35:10.280Z,4.60
2018-08-30T01:37:39.451Z,3.60
2018-08-30T01:40:08.747Z,4.30
2018-08-30T01:42:38.007Z,6.13
2018-08-30T01:45:07.327Z,3.30
2018-08-30T01:47:36.659Z,4.63
2018-08-30T01:50:05.983Z,3.27
2018-08-30T01:52:35.243Z,3.50
2018-08-30T01:55:04.524Z,3.50
2018-08-30T01:57:33.794Z,5.90
2018-08-30T02:00:03.192Z,4.00
2018-08-30T02:02:32.480Z,4.10
2018-08-30T02:05:01.776Z,5.30
2018-08-30T02:07:31.711Z,4.30
2018-08-30T02:10:00.989Z,3.93
2018-08-30T02:12:30.227Z,3.50
2018-08-30T02:14:59.586Z,4.50
2018-08-30T02:17:28.809Z,4.03
2018-08-30T02:19:58.767Z,4.77
2018-08-30T02:22:28.007Z,5.30
2018-08-30T02:24:57.357Z,4.70
2018-08-30T02:27:26.652Z,3.60
2018-08-30T02:29:56.191Z,3.60
2018-08-30T02:32:25.663Z,2.83
2018-08-30T02:34:55.031Z,3.30
2018-08-30T02:37:24.352Z,3.53
2018-08-30T02:39:53.623Z,5.10
2018-08-30T02:42:22.899Z,7.00
2018-08-30T02:44:52.288Z,4.70
2018-08-30T02:47:21.575Z,4.00
2018-08-30T02:49:51.012Z,4.30
2018-08-30T02:52:20.630Z,3.70
2018-08-30T02:54:49.981Z,4.20
2018-08-30T02:57:19.281Z,4.30
2018-08-30T02:59:48.629Z,3.23
2018-08-30T03:02:17.895Z,6.67
2018-08-30T03:04:47.467Z,5.03
2018-08-30T03:07:17.127Z,3.50
2018-08-30T03:09:46.441Z,5.53
2018-08-30T03:12:16.177Z,3.60
2018-08-30T03:14:50.687Z,4.83
2018-08-30T03:17:19.930Z,4.60
2018-08-30T03:19:49.349Z,7.30
2018-08-30T03:22:18.748Z,3.70
2018-08-30T03:24:47.999Z,3.30
2018-08-30T03:27:18.786Z,5.30
2018-08-30T03:29:48.243Z,3.43
2018-08-30T03:32:17.705Z,3.57
2018-08-30T03:34:47.113Z,5.00
2018-08-30T03:37:16.447Z,3.67
2018-08-30T03:39:45.802Z,4.50
2018-08-30T03:42:15.114Z,3.60
2018-08-30T03:44:44.419Z,4.60
2018-08-30T03:47:13.670Z,4.30
2018-08-30T03:49:42.929Z,4.53
2018-08-30T03:52:12.328Z,6.83
2018-08-30T03:54:41.676Z,3.43
2018-08-30T03:57:11.164Z,5.93
2018-08-30T03:59:40.488Z,3.23
2018-08-30T04:02:09.876Z,3.60
2018-08-30T04:04:40.142Z,6.13
2018-08-30T04:07:09.779Z,3.80
2018-08-30T04:09:38.987Z,6.60
2018-08-30T04:12:08.445Z,7.53
2018-08-30T04:14:37.866Z,5.97
2018-08-30T04:17:07.162Z,4.57
2018-08-30T04:19:36.395Z,2.83
2018-08-30T04:22:06.162Z,6.80
2018-08-30T04:24:35.647Z,3.67
2018-08-30T04:27:05.288Z,3.27
2018-08-30T04:29:34.588Z,6.30
2018-08-30T04:32:03.967Z,5.30
2018-08-30T04:34:33.272Z,3.40
2018-08-30T04:37:02.536Z,3.43
2018-08-30T04:39:32.275Z,3.47
2018-08-30T04:42:01.647Z,2.27
2018-08-30T04:44:31.438Z,2.53
2018-08-30T04:47:00.766Z,2.70
2018-08-30T04:49:29.959Z,5.30
2018-08-30T04:51:59.162Z,5.50
2018-08-30T04:54:28.443Z,3.57
2018-08-30T04:56:57.668Z,4.67
2018-08-30T04:59:26.883Z,4.40
2018-08-30T05:01:56.098Z,4.20
2018-08-30T05:04:25.531Z,6.63
2018-08-30T05:06:54.663Z,4.00
2018-08-30T05:09:23.862Z,4.13
2018-08-30T05:11:53.046Z,7.90
2018-08-30T05:14:22.325Z,6.10
2018-08-30T05:16:52.334Z,8.23
2018-08-30T05:19:21.640Z,8.50
2018-08-30T05:21:50.841Z,6.23
2018-08-30T05:24:20.091Z,5.77
2018-08-30T05:26:49.622Z,7.20
2018-08-30T05:29:18.866Z,6.50
2018-08-30T05:31:48.161Z,5.37
2018-08-30T05:34:17.479Z,5.20
2018-08-30T05:36:46.822Z,4.93
2018-08-30T05:39:16.095Z,6.90
2018-08-30T05:41:45.454Z,5.33
2018-08-30T05:44:15.361Z,5.80
2018-08-30T05:46:44.683Z,4.37
2018-08-30T05:49:14.004Z,8.00
2018-08-30T05:51:43.416Z,7.20
2018-08-30T05:54:12.748Z,5.63
2018-08-30T05:56:42.105Z,9.00
2018-08-30T05:59:11.422Z,8.20
2018-08-30T06:01:40.812Z,10.27
2018-08-30T06:04:10.082Z,10.83
2018-08-30T06:06:39.439Z,9.90
2018-08-30T06:09:08.855Z,7.80
2018-08-30T06:11:38.248Z,13.00
2018-08-30T06:14:07.599Z,11.30
2018-08-30T06:16:38.393Z,11.07
2018-08-30T06:19:07.613Z,13.00
2018-08-30T06:21:36.822Z,8.67
2018-08-30T06:24:06.084Z,12.60
2018-08-30T06:26:35.611Z,10.73
2018-08-30T06:29:05.211Z,9.33
2018-08-30T06:31:34.808Z,10.00
2018-08-30T06:34:04.174Z,10.27
2018-08-30T06:36:33.581Z,15.30
2018-08-30T06:39:02.958Z,12.43
2018-08-30T06:41:32.385Z,9.97
2018-08-30T06:44:01.567Z,8.07
2018-08-30T06:46:30.797Z,7.67
2018-08-30T06:49:00.310Z,7.37
2018-08-30T06:51:29.646Z,8.90
2018-08-30T06:53:58.935Z,9.07
2018-08-30T06:56:28.281Z,9.87
2018-08-30T06:58:57.549Z,11.73
2018-08-30T07:01:27.046Z,7.33
2018-08-30T07:03:56.380Z,4.83
2018-08-30T07:06:25.570Z,10.00
2018-08-30T07:08:54.847Z,12.50
2018-08-30T07:11:24.163Z,10.40
2018-08-30T07:13:53.478Z,6.57
2018-08-30T07:16:22.783Z,5.80
2018-08-30T07:18:51.979Z,4.80
2018-08-30T07:21:21.197Z,5.77
2018-08-30T07:23:50.387Z,6.60
2018-08-30T07:26:20.053Z,4.63
2018-08-30T07:28:49.371Z,4.97
2018-08-30T07:31:18.682Z,6.53
2018-08-30T07:33:48.053Z,10.57
2018-08-30T07:36:17.366Z,9.03
2018-08-30T07:38:46.623Z,6.70
2018-08-30T07:41:15.942Z,7.93
2018-08-30T07:43:45.191Z,7.20
2018-08-30T07:46:15.036Z,16.13
2018-08-30T07:48:44.359Z,7.20
2018-08-30T07:51:14.035Z,9.10
2018-08-30T07:53:43.475Z,13.30
2018-08-30T07:56:12.774Z,9.70
2018-08-30T07:58:42.059Z,15.13
2018-08-30T08:01:11.296Z,10.77
2018-08-30T08:03:40.483Z,15.97
2018-08-30T08:06:09.771Z,15.47
2018-08-30T08:08:39.251Z,12.60
2018-08-30T08:11:08.492Z,11.20
2018-08-30T08:13:37.652Z,8.47
2018-08-30T08:16:07.312Z,9.70
2018-08-30T08:18:36.649Z,9.37
2018-08-30T08:21:06.858Z,9.10
2018-08-30T08:23:36.028Z,7.90
2018-08-30T08:26:05.678Z,10.10
2018-08-30T08:28:34.991Z,15.57
2018-08-30T08:31:04.239Z,13.33
2018-08-30T08:33:33.506Z,8.77
2018-08-30T08:36:02.718Z,10.90
2018-08-30T08:38:31.975Z,9.40
2018-08-30T08:41:01.186Z,9.37
2018-08-30T08:43:30.388Z,10.23
2018-08-30T08:45:59.788Z,10.37
2018-08-30T08:48:29.031Z,10.53
2018-08-30T08:50:58.496Z,12.13
2018-08-30T08:53:27.825Z,13.03
2018-08-30T08:55:57.093Z,10.40
2018-08-30T08:58:26.349Z,9.10
2018-08-30T09:00:55.537Z,9.27
2018-08-30T09:03:25.116Z,7.90
2018-08-30T09:05:54.442Z,7.97
2018-08-30T09:08:23.903Z,12.20
2018-08-30T09:10:53.274Z,13.50
2018-08-30T09:13:22.551Z,11.17
2018-08-30T09:15:52.419Z,8.60
2018-08-30T09:18:21.755Z,9.20
2018-08-30T09:20:51.034Z,8.20
2018-08-30T09:23:20.289Z,10.57
2018-08-30T09:25:49.533Z,11.40
2018-08-30T09:28:19.206Z,11.07
2018-08-30T09:30:48.544Z,12.00
2018-08-30T09:33:17.856Z,13.60
2018-08-30T09:35:47.079Z,13.27
2018-08-30T09:38:16.595Z,16.07
2018-08-30T09:40:45.939Z,15.00
2018-08-30T09:43:15.351Z,12.70
2018-08-30T09:45:44.666Z,15.40
2018-08-30T09:48:14.047Z,14.13
2018-08-30T09:50:43.452Z,11.83
2018-08-30T09:53:12.822Z,13.53
2018-08-30T09:55:43.149Z,12.97
2018-08-30T09:58:12.522Z,10.83
2018-08-30T10:00:46.968Z,11.87
2018-08-30T10:03:16.223Z,12.03
2018-08-30T10:05:45.818Z,10.07
2018-08-30T10:08:15.193Z,9.53
2018-08-30T10:10:44.464Z,10.87
2018-08-30T10:13:13.889Z,12.43
2018-08-30T10:15:43.286Z,11.43
2018-08-30T10:18:12.679Z,11.20
2018-08-30T10:20:41.968Z,10.50
2018-08-30T10:23:11.333Z,13.50
2018-08-30T10:25:40.613Z,11.20
2018-08-30T10:28:09.948Z,11.40
2018-08-30T10:30:39.187Z,10.17
2018-08-30T10:33:08.599Z,11.87
2018-08-30T10:35:37.854Z,9.83
2018-08-30T10:38:07.090Z,9.63
2018-08-30T10:40:36.341Z,16.17
2018-08-30T10:43:05.804Z,8.80
2018-08-30T10:45:35.096Z,9.90
2018-08-30T10:48:04.447Z,11.93
2018-08-30T10:50:33.895Z,10.73
2018-08-30T10:53:03.202Z,9.90
2018-08-30T10:55:32.531Z,9.73
2018-08-30T10:58:01.848Z,10.80
2018-08-30T11:00:32.950Z,9.43
2018-08-30T11:03:02.367Z,10.40
2018-08-30T11:05:32.470Z,10.37
2018-08-30T11:08:02.569Z,10.20
2018-08-30T11:10:31.915Z,8.80
2018-08-30T11:13:01.331Z,10.17
2018-08-30T11:15:30.743Z,9.50
2018-08-30T11:18:00.004Z,9.60
2018-08-30T11:20:29.412Z,8.63
2018-08-30T11:22:58.661Z,8.80
2018-08-30T11:25:27.999Z,11.17
2018-08-30T11:27:57.375Z,11.10
2018-08-30T11:30:26.868Z,9.07
2018-08-30T11:32:56.625Z,8.60
2018-08-30T11:35:26.129Z,10.10
2018-08-30T11:37:55.521Z,8.33
2018-08-30T11:40:24.808Z,8.40
2018-08-30T11:42:54.307Z,9.83
2018-08-30T11:45:23.637Z,11.13
2018-08-30T11:47:53.413Z,7.87
2018-08-30T11:50:22.844Z,7.40
2018-08-30T11:52:52.234Z,8.00
2018-08-30T11:55:21.625Z,8.43
2018-08-30T11:57:51.070Z,8.23
2018-08-30T12:00:20.423Z,9.70
2018-08-30T12:02:49.847Z,10.60
2018-08-30T12:05:19.287Z,7.80
2018-08-30T12:07:48.767Z,8.43
2018-08-30T12:10:18.280Z,9.73
2018-08-30T12:12:47.675Z,10.13
2018-08-30T12:15:16.971Z,9.20
2018-08-30T12:17:46.408Z,10.40
2018-08-30T12:20:15.847Z,10.10
2018-08-30T12:22:45.138Z,12.07
2018-08-30T12:25:14.345Z,8.60
2018-08-30T12:27:43.692Z,8.83
2018-08-30T12:30:12.953Z,8.93
2018-08-30T12:32:42.454Z,7.60
2018-08-30T12:35:11.845Z,8.50
2018-08-30T12:37:41.040Z,12.30
2018-08-30T12:40:10.455Z,11.53
2018-08-30T12:42:39.655Z,8.00
2018-08-30T12:45:09.855Z,9.93
2018-08-30T12:47:39.251Z,8.40
2018-08-30T12:50:08.713Z,11.90
2018-08-30T12:52:38.010Z,9.20
2018-08-30T12:55:07.835Z,10.13
2018-08-30T12:57:37.307Z,7.53
2018-08-30T13:00:08.032Z,9.57
2018-08-30T13:02:37.513Z,10.93
2018-08-30T13:05:07.027Z,9.87
2018-08-30T13:07:36.379Z,9.83
2018-08-30T13:10:06.105Z,9.50
2018-08-30T13:12:35.915Z,11.63
2018-08-30T13:15:05.433Z,11.67
2018-08-30T13:17:34.635Z,9.93
2018-08-30T13:20:04.160Z,8.40
2018-08-30T13:22:33.805Z,9.00
2018-08-30T13:25:03.389Z,12.40
2018-08-30T13:27:32.552Z,8.60
2018-08-30T13:30:02.471Z,7.07
2018-08-30T13:32:31.791Z,8.93
2018-08-30T13:35:01.301Z,8.30
2018-08-30T13:37:30.603Z,7.87
2018-08-30T13:40:00.346Z,10.60
2018-08-30T13:42:30.016Z,13.73
2018-08-30T13:44:59.602Z,8.80
2018-08-30T13:47:28.757Z,9.30
2018-08-30T13:49:58.367Z,8.00
2018-08-30T13:52:27.943Z,10.83
2018-08-30T13:54:57.216Z,9.70
2018-08-30T13:57:26.556Z,8.70
2018-08-30T13:59:56.225Z,11.20
2018-08-30T14:02:25.502Z,7.70
2018-08-30T14:04:55.000Z,8.67
2018-08-30T14:07:24.487Z,9.37
2018-08-30T14:09:53.757Z,9.10
2018-08-30T14:12:23.137Z,8.40
2018-08-30T14:14:52.357Z,8.87
2018-08-30T14:17:21.477Z,12.10
2018-08-30T14:19:51.176Z,14.70
2018-08-30T14:22:20.543Z,15.03
2018-08-30T14:24:49.970Z,11.20
2018-08-30T14:27:19.233Z,12.10
2018-08-30T14:29:48.657Z,12.63
2018-08-30T14:32:17.956Z,12.57
2018-08-30T14:34:47.784Z,10.60
2018-08-30T14:37:17.464Z,9.87
2018-08-30T14:39:47.244Z,12.90
2018-08-30T14:42:16.589Z,11.87
2018-08-30T14:44:45.847Z,14.10
2018-08-30T14:47:15.795Z,12.70
2018-08-30T14:49:44.987Z,13.27
2018-08-30T14:52:19.398Z,11.63
2018-08-30T14:54:48.691Z,10.27
2018-08-30T14:57:18.404Z,9.23
2018-08-30T14:59:47.870Z,10.43
2018-08-30T15:02:17.118Z,13.30
2018-08-30T15:04:50.835Z,13.43
2018-08-30T15:07:24.031Z,10.37
2018-08-30T15:09:56.615Z,9.70
2018-08-30T15:12:29.879Z,12.60
2018-08-30T15:15:03.750Z,11.40
2018-08-30T15:17:36.749Z,11.47
2018-08-30T15:20:10.394Z,14.10
2018-08-30T15:22:44.130Z,14.47
2018-08-30T15:25:17.868Z,10.00
2018-08-30T15:27:52.077Z,10.87
2018-08-30T15:30:25.562Z,13.73
2018-08-30T15:33:00.182Z,11.00
2018-08-30T15:35:34.421Z,14.60
2018-08-30T15:38:08.110Z,12.53
2018-08-30T15:40:41.312Z,13.97
2018-08-30T15:43:15.636Z,14.80
2018-08-30T15:45:49.535Z,12.50
2018-08-30T15:48:23.264Z,12.83
2018-08-30T15:50:56.170Z,10.70
2018-08-30T15:53:28.745Z,11.90
2018-08-30T15:56:01.950Z,12.87
2018-08-30T15:58:35.568Z,12.40
2018-08-30T16:01:09.880Z,14.73
2018-08-30T16:03:42.931Z,14.90
2018-08-30T16:06:16.368Z,10.03
2018-08-30T16:08:50.285Z,12.50
2018-08-30T16:11:23.924Z,13.23
2018-08-30T16:13:53.400Z,13.00
2018-08-30T16:16:22.805Z,17.20
2018-08-30T16:18:56.903Z,13.63
2018-08-30T16:21:30.001Z,14.13
2018-08-30T16:24:03.429Z,11.20
2018-08-30T16:26:37.594Z,11.07
2018-08-30T16:29:10.977Z,13.47
2018-08-30T16:31:45.818Z,13.50
2018-08-30T16:34:18.847Z,12.17
2018-08-30T16:36:52.033Z,14.47
2018-08-30T16:39:24.566Z,12.93
2018-08-30T16:41:58.080Z,12.93
2018-08-30T16:44:30.885Z,10.93
2018-08-30T16:47:04.288Z,15.73
2018-08-30T16:49:38.416Z,11.93
2018-08-30T16:52:11.382Z,14.67
2018-08-30T16:54:45.451Z,12.13
2018-08-30T16:57:19.436Z,13.57
2018-08-30T16:59:52.149Z,14.23
2018-08-30T17:02:25.492Z,11.07
2018-08-30T17:04:56.100Z,10.93
2018-08-30T17:07:25.616Z,16.63
2018-08-30T17:09:54.975Z,11.77
2018-08-30T17:12:24.441Z,14.77
2018-08-30T17:14:53.805Z,12.20
2018-08-30T17:17:23.150Z,12.50
2018-08-30T17:19:52.494Z,13.70
2018-08-30T17:22:22.719Z,11.80
2018-08-30T17:24:52.080Z,16.27
2018-08-30T17:27:21.543Z,11.70
2018-08-30T17:29:51.242Z,11.90
2018-08-30T17:32:20.602Z,11.07
2018-08-30T17:34:49.853Z,9.90
2018-08-30T17:37:23.199Z,10.53
2018-08-30T17:40:04.426Z,11.37
2018-08-30T17:43:02.171Z,13.20
2018-08-30T17:45:46.706Z,14.57
2018-08-30T17:48:26.918Z,12.63
2018-08-30T17:51:07.509Z,10.47
2018-08-30T17:53:40.709Z,17.07
2018-08-30T17:56:13.378Z,10.77
2018-08-30T17:58:48.610Z,11.50
2018-08-30T18:01:22.701Z,13.20
2018-08-30T18:03:57.068Z,10.47
2018-08-30T18:06:31.449Z,10.87
2018-08-30T18:09:07.664Z,10.87
2018-08-30T18:11:43.176Z,15.57
2018-08-30T18:14:18.426Z,12.53
2018-08-30T18:16:55.315Z,10.20
2018-08-30T18:19:29.026Z,12.03
2018-08-30T18:22:03.379Z,14.30
2018-08-30T18:24:32.971Z,12.97
2018-08-30T18:27:02.966Z,12.70
2018-08-30T18:29:33.038Z,14.10
2018-08-30T18:32:02.953Z,16.87
2018-08-30T18:34:32.636Z,13.40
2018-08-30T18:37:02.301Z,13.43
2018-08-30T18:39:32.346Z,11.30
2018-08-30T18:42:02.056Z,15.30
2018-08-30T18:44:31.592Z,12.10
2018-08-30T18:47:07.705Z,13.20
2018-08-30T18:49:37.589Z,14.50
2018-08-30T18:52:07.379Z,13.63
2018-08-30T18:54:37.328Z,14.90
2018-08-30T18:57:09.395Z,11.80
2018-08-30T18:59:39.368Z,16.67
2018-08-30T19:02:09.179Z,13.57
2018-08-30T19:04:38.883Z,16.33
2018-08-30T19:07:08.652Z,14.10
2018-08-30T19:09:38.596Z,12.03
2018-08-30T19:12:08.427Z,14.53
2018-08-30T19:14:38.442Z,14.17
2018-08-30T19:17:13.223Z,15.07
2018-08-30T19:19:43.144Z,16.60
2018-08-30T19:22:13.056Z,14.80
2018-08-30T19:24:47.893Z,13.30
2018-08-30T19:27:17.717Z,13.33
2018-08-30T19:29:52.443Z,16.80
2018-08-30T19:32:22.225Z,14.40
2018-08-30T19:34:52.328Z,15.87
2018-08-30T19:37:22.072Z,17.67
2018-08-30T19:39:51.940Z,19.37
2018-08-30T19:42:21.737Z,15.13
2018-08-30T19:44:51.778Z,15.73
2018-08-30T19:47:21.552Z,14.87
2018-08-30T19:49:51.360Z,17.60
2018-08-30T19:52:21.181Z,13.97
2018-08-30T19:54:51.050Z,16.47
2018-08-30T19:57:21.352Z,17.10
2018-08-30T19:59:51.440Z,16.17
2018-08-30T20:02:21.266Z,18.93
2018-08-30T20:04:50.646Z,19.00
2018-08-30T20:07:20.042Z,17.87
2018-08-30T20:09:49.555Z,19.20
2018-08-30T20:12:18.923Z,17.03
2018-08-30T20:14:48.590Z,17.77
2018-08-30T20:17:17.920Z,17.87
2018-08-30T20:19:47.220Z,22.63
2018-08-30T20:22:16.754Z,18.00
2018-08-30T20:24:49.727Z,21.37
2018-08-30T20:27:19.471Z,20.97
2018-08-30T20:29:50.738Z,20.07
2018-08-30T20:32:21.027Z,17.30
2018-08-30T20:34:50.678Z,16.33
2018-08-30T20:37:20.467Z,17.77
2018-08-30T20:39:51.819Z,18.93
2018-08-30T20:42:24.154Z,18.67
2018-08-30T20:44:55.263Z,19.80
2018-08-30T20:47:24.728Z,16.97
2018-08-30T20:49:55.181Z,18.40
2018-08-30T20:52:26.524Z,19.00
2018-08-30T20:54:56.890Z,18.73
2018-08-30T20:57:27.448Z,21.43
2018-08-30T20:59:58.833Z,29.20
2018-08-30T21:02:29.315Z,16.17
2018-08-30T21:05:00.117Z,24.37
2018-08-30T21:07:30.821Z,25.13
2018-08-30T21:10:00.916Z,23.23
2018-08-30T21:12:31.500Z,17.57
2018-08-30T21:15:03.961Z,23.00
2018-08-30T21:17:34.712Z,18.23
2018-08-30T21:20:05.382Z,24.33
2018-08-30T21:22:35.440Z,22.07
2018-08-30T21:25:07.565Z,18.37
2018-08-30T21:27:40.035Z,21.27
2018-08-30T21:30:11.298Z,20.20
2018-08-30T21:32:42.051Z,22.60
2018-08-30T21:35:12.247Z,21.00
2018-08-30T21:37:43.089Z,21.03
2018-08-30T21:40:12.913Z,19.77
2018-08-30T21:42:44.049Z,16.00
2018-08-30T21:45:14.483Z,23.60
2018-08-30T21:47:48.239Z,20.10
2018-08-30T21:50:18.871Z,18.23
2018-08-30T21:52:50.746Z,17.30
2018-08-30T21:55:22.861Z,21.87
2018-08-30T21:57:55.104Z,20.03
2018-08-30T22:00:26.773Z,22.50
2018-08-30T22:02:57.569Z,18.80
2018-08-30T22:05:27.951Z,20.07
2018-08-30T22:07:58.032Z,19.43
2018-08-30T22:10:29.617Z,22.47
2018-08-30T22:12:59.578Z,18.57
2018-08-30T22:15:31.225Z,18.23
2018-08-30T22:18:02.496Z,23.17
2018-08-30T22:20:34.104Z,20.10
2018-08-30T22:23:05.535Z,23.50
2018-08-30T22:25:38.538Z,18.80
2018-08-30T22:28:08.467Z,21.50
2018-08-30T22:30:39.548Z,19.10
2018-08-30T22:33:10.497Z,18.00
2018-08-30T22:35:41.163Z,18.73
2018-08-30T22:38:11.928Z,21.97
2018-08-30T22:40:43.431Z,24.53
2018-08-30T22:43:13.510Z,19.73
2018-08-30T22:45:44.171Z,21.37
2018-08-30T22:48:14.925Z,22.33
2018-08-30T22:50:44.286Z,24.80
2018-08-30T22:53:14.983Z,24.03
2018-08-30T22:55:45.246Z,20.80
2018-08-30T22:58:15.262Z,20.10
2018-08-30T23:00:47.169Z,18.33
2018-08-30T23:03:18.633Z,18.50
2018-08-30T23:05:48.710Z,21.67
2018-08-30T23:08:18.960Z,18.30
2018-08-30T23:10:49.248Z,21.23
2018-08-30T23:13:18.852Z,15.57
2018-08-30T23:15:49.084Z,17.30
2018-08-30T23:18:19.448Z,18.37
2018-08-30T23:20:49.139Z,18.43
2018-08-30T23:23:18.469Z,16.70
2018-08-30T23:25:50.027Z,23.97
2018-08-30T23:28:20.924Z,22.37
2018-08-30T23:30:50.169Z,22.73
2018-08-30T23:33:19.910Z,19.83
2018-08-30T23:35:49.183Z,22.47
2018-08-30T23:38:19.031Z,20.60
2018-08-30T23:40:48.326Z,21.27
2018-08-30T23:43:17.798Z,21.93
2018-08-30T23:45:47.029Z,23.73
2018-08-30T23:48:16.322Z,19.97
2018-08-30T23:50:45.539Z,20.67
2018-08-30T23:53:14.952Z,20.03
2018-08-30T23:55:44.235Z,17.57
2018-08-30T23:58:24.492Z,18.90
